createdAt,value
2019-01-08T00:00:43.174Z,1.68
2019-01-08T00:01:51.054Z,1.68
2019-01-08T00:02:59.293Z,1.73
2019-01-08T00:04:07.293Z,1.70
2019-01-08T00:05:15.365Z,1.69
2019-01-08T00:06:23.378Z,1.62
2019-01-08T00:07:31.485Z,1.65
2019-01-08T00:08:39.413Z,1.65
2019-01-08T00:09:47.484Z,1.72
2019-01-08T00:10:55.675Z,1.62
2019-01-08T00:12:03.744Z,1.68
2019-01-08T00:13:11.828Z,1.60
2019-01-08T00:14:19.709Z,1.68
2019-01-08T00:15:27.753Z,1.68
2019-01-08T00:16:35.813Z,1.68
2019-01-08T00:17:43.885Z,1.68
2019-01-08T00:18:51.984Z,1.69
2019-01-08T00:20:00.251Z,1.66
2019-01-08T00:21:08.020Z,1.66
2019-01-08T00:22:16.100Z,1.66
2019-01-08T00:23:24.290Z,1.68
2019-01-08T00:24:32.323Z,1.70
2019-01-08T00:25:40.270Z,1.70
2019-01-08T00:26:48.441Z,1.63
2019-01-08T00:27:56.410Z,1.72
2019-01-08T00:29:04.581Z,1.69
2019-01-08T00:30:12.494Z,1.69
2019-01-08T00:31:20.685Z,1.68
2019-01-08T00:32:28.733Z,1.70
2019-01-08T00:33:36.808Z,1.69
2019-01-08T00:34:44.835Z,1.72
2019-01-08T00:35:52.875Z,1.69
2019-01-08T00:37:00.951Z,1.73
2019-01-08T00:38:08.915Z,1.73
2019-01-08T00:39:17.085Z,1.69
2019-01-08T00:40:24.995Z,1.69
2019-01-08T00:41:33.073Z,1.70
2019-01-08T00:42:41.262Z,1.66
2019-01-08T00:43:49.302Z,1.69
2019-01-08T00:44:57.240Z,1.68
2019-01-08T00:46:05.391Z,1.69
2019-01-08T00:47:13.337Z,1.69
2019-01-08T00:48:21.523Z,1.73
2019-01-08T00:49:29.526Z,1.79
2019-01-08T00:50:37.611Z,1.69
2019-01-08T00:51:45.565Z,1.65
2019-01-08T00:52:53.646Z,1.59
2019-01-08T00:54:01.664Z,1.63
2019-01-08T00:55:09.851Z,1.65
2019-01-08T00:56:17.795Z,1.65
2019-01-08T00:57:25.993Z,1.63
2019-01-08T00:58:33.899Z,1.65
2019-01-08T00:59:42.070Z,1.55
2019-01-08T01:00:50.135Z,1.63
2019-01-08T01:01:58.151Z,1.54
2019-01-08T01:03:06.307Z,1.63
2019-01-08T01:04:14.190Z,1.63
2019-01-08T01:05:22.384Z,1.62
2019-01-08T01:06:30.287Z,1.55
2019-01-08T01:07:38.540Z,1.58
2019-01-08T01:08:46.420Z,1.55
2019-01-08T01:09:54.630Z,1.52
2019-01-08T01:11:02.626Z,1.59
2019-01-08T01:12:10.711Z,1.58
2019-01-08T01:13:18.744Z,1.60
2019-01-08T01:14:26.758Z,1.58
2019-01-08T01:15:34.901Z,1.63
2019-01-08T01:16:42.940Z,1.52
2019-01-08T01:17:50.899Z,1.51
2019-01-08T01:18:59.037Z,1.55
2019-01-08T01:20:06.984Z,1.59
2019-01-08T01:21:15.152Z,1.51
2019-01-08T01:22:23.252Z,1.55
2019-01-08T01:23:31.259Z,1.52
2019-01-08T01:24:39.324Z,1.45
2019-01-08T01:25:47.271Z,1.45
2019-01-08T01:26:55.302Z,1.45
2019-01-08T01:28:03.483Z,1.40
2019-01-08T01:29:11.539Z,1.52
2019-01-08T01:30:19.595Z,1.40
2019-01-08T01:31:27.555Z,1.34
2019-01-08T01:32:35.709Z,1.51
2019-01-08T01:33:43.648Z,1.44
2019-01-08T01:34:51.831Z,1.42
2019-01-08T01:35:59.745Z,1.42
2019-01-08T01:37:07.826Z,1.37
2019-01-08T01:38:16.012Z,1.42
2019-01-08T01:39:23.928Z,1.51
2019-01-08T01:40:32.116Z,1.42
2019-01-08T01:41:40.054Z,1.42
2019-01-08T01:42:48.212Z,1.45
2019-01-08T01:43:56.297Z,1.41
2019-01-08T01:45:04.206Z,1.44
2019-01-08T01:46:12.407Z,1.37
2019-01-08T01:47:20.423Z,1.34
2019-01-08T01:48:28.501Z,1.42
2019-01-08T01:49:36.438Z,1.42
2019-01-08T01:50:44.539Z,1.40
2019-01-08T01:51:52.674Z,1.36
2019-01-08T01:53:00.664Z,1.44
2019-01-08T01:54:08.667Z,1.44
2019-01-08T01:55:16.858Z,1.37
2019-01-08T01:56:24.900Z,1.47
2019-01-08T01:57:32.845Z,1.36
2019-01-08T01:58:41.008Z,1.41
2019-01-08T01:59:49.027Z,1.45
2019-01-08T02:00:57.136Z,1.36
2019-01-08T02:02:05.207Z,1.37
2019-01-08T02:03:13.117Z,1.40
2019-01-08T02:04:21.291Z,1.27
2019-01-08T02:05:29.355Z,1.42
2019-01-08T02:06:37.342Z,1.33
2019-01-08T02:07:45.501Z,1.26
2019-01-08T02:08:53.396Z,1.26
2019-01-08T02:10:01.531Z,1.33
2019-01-08T02:11:09.633Z,1.32
2019-01-08T02:12:17.625Z,1.36
2019-01-08T02:13:25.716Z,1.22
2019-01-08T02:14:33.784Z,1.34
2019-01-08T02:15:41.728Z,1.32
2019-01-08T02:16:49.919Z,1.23
2019-01-08T02:17:57.900Z,1.24
2019-01-08T02:19:06.025Z,1.26
2019-01-08T02:20:14.143Z,1.23
2019-01-08T02:21:22.014Z,1.23
2019-01-08T02:22:30.178Z,1.14
2019-01-08T02:23:38.126Z,1.29
2019-01-08T02:24:46.317Z,1.15
2019-01-08T02:25:54.338Z,1.20
2019-01-08T02:27:02.483Z,1.24
2019-01-08T02:28:10.395Z,1.18
2019-01-08T02:29:18.462Z,1.18
2019-01-08T02:30:26.448Z,1.14
2019-01-08T02:31:34.629Z,1.18
2019-01-08T02:32:42.555Z,1.14
2019-01-08T02:33:50.780Z,1.22
2019-01-08T02:34:58.678Z,1.11
2019-01-08T02:36:06.734Z,1.15
2019-01-08T02:37:14.792Z,1.15
2019-01-08T02:38:22.841Z,1.15
2019-01-08T02:39:31.049Z,1.14
2019-01-08T02:40:39.087Z,1.15
2019-01-08T02:41:47.094Z,1.20
2019-01-08T02:42:55.199Z,1.18
2019-01-08T02:44:03.353Z,1.20
2019-01-08T02:45:11.315Z,1.15
2019-01-08T02:46:19.379Z,1.14
2019-01-08T02:47:27.426Z,1.12
2019-01-08T02:48:35.492Z,1.09
2019-01-08T02:49:43.406Z,1.09
2019-01-08T02:50:51.443Z,1.06
2019-01-08T02:51:59.686Z,1.09
2019-01-08T02:53:07.575Z,1.11
2019-01-08T02:54:15.638Z,1.11
2019-01-08T02:55:23.696Z,1.11
2019-01-08T02:56:31.862Z,1.04
2019-01-08T02:57:39.785Z,1.12
2019-01-08T02:58:48.033Z,1.11
2019-01-08T02:59:56.026Z,1.14
2019-01-08T03:01:04.062Z,1.12
2019-01-08T03:02:12.079Z,1.11
2019-01-08T03:03:20.243Z,1.14
2019-01-08T03:04:28.253Z,1.09
2019-01-08T03:05:36.361Z,1.12
2019-01-08T03:06:44.304Z,1.09
2019-01-08T03:07:52.400Z,1.15
2019-01-08T03:09:00.355Z,1.18
2019-01-08T03:10:08.560Z,1.14
2019-01-08T03:11:16.482Z,1.14
2019-01-08T03:12:24.654Z,1.20
2019-01-08T03:13:32.772Z,1.09
2019-01-08T03:14:40.780Z,1.06
2019-01-08T03:15:48.821Z,1.16
2019-01-08T03:16:56.871Z,1.12
2019-01-08T03:18:04.792Z,1.16
2019-01-08T03:19:12.944Z,1.05
2019-01-08T03:20:21.053Z,1.11
2019-01-08T03:21:29.084Z,1.08
2019-01-08T03:22:37.159Z,1.15
2019-01-08T03:23:45.209Z,1.14
2019-01-08T03:24:53.308Z,1.12
2019-01-08T03:26:01.289Z,1.09
2019-01-08T03:27:09.240Z,1.09
2019-01-08T03:28:17.327Z,1.05
2019-01-08T03:29:33.297Z,1.06
2019-01-08T03:30:33.549Z,1.15
2019-01-08T03:31:41.572Z,1.09
2019-01-08T03:32:49.570Z,1.12
2019-01-08T03:33:57.717Z,1.09
2019-01-08T03:35:05.666Z,1.08
2019-01-08T03:36:13.844Z,0.98
2019-01-08T03:37:21.817Z,1.09
2019-01-08T03:38:29.798Z,1.04
2019-01-08T03:39:37.982Z,1.02
2019-01-08T03:40:46.063Z,0.93
2019-01-08T03:41:54.105Z,1.11
2019-01-08T03:43:02.175Z,1.04
2019-01-08T03:44:10.219Z,1.11
2019-01-08T03:45:18.172Z,1.09
2019-01-08T03:46:26.324Z,1.06
2019-01-08T03:47:34.301Z,1.08
2019-01-08T03:48:42.429Z,0.98
2019-01-08T03:49:50.354Z,1.04
2019-01-08T03:50:58.461Z,0.98
2019-01-08T03:52:06.545Z,1.11
2019-01-08T03:53:14.602Z,1.16
2019-01-08T03:54:22.725Z,1.00
2019-01-08T03:55:30.807Z,0.97
2019-01-08T03:56:38.698Z,1.11
2019-01-08T03:57:46.747Z,1.11
2019-01-08T03:58:54.869Z,1.04
2019-01-08T04:00:02.992Z,1.06
2019-01-08T04:01:10.902Z,1.02
2019-01-08T04:02:19.039Z,1.04
2019-01-08T04:03:27.170Z,1.08
2019-01-08T04:04:35.202Z,1.04
2019-01-08T04:05:43.307Z,1.06
2019-01-08T04:06:51.304Z,1.04
2019-01-08T04:07:59.291Z,0.96
2019-01-08T04:09:07.432Z,1.09
2019-01-08T04:10:15.344Z,1.11
2019-01-08T04:11:23.543Z,1.09
2019-01-08T04:12:31.549Z,1.12
2019-01-08T04:13:39.654Z,1.11
2019-01-08T04:14:47.591Z,1.12
2019-01-08T04:15:55.752Z,1.09
2019-01-08T04:17:03.771Z,1.06
2019-01-08T04:18:11.755Z,1.06
2019-01-08T04:19:19.831Z,1.02
2019-01-08T04:20:27.994Z,1.06
2019-01-08T04:21:36.005Z,1.09
2019-01-08T04:22:43.967Z,1.09
2019-01-08T04:23:52.147Z,1.12
2019-01-08T04:25:00.168Z,1.09
2019-01-08T04:26:08.327Z,1.00
2019-01-08T04:27:16.213Z,1.14
2019-01-08T04:28:24.304Z,1.04
2019-01-08T04:29:32.308Z,1.14
2019-01-08T04:30:40.490Z,1.15
2019-01-08T04:31:48.414Z,1.04
2019-01-08T04:32:56.580Z,1.11
2019-01-08T04:34:04.631Z,1.08
2019-01-08T04:35:12.719Z,1.05
2019-01-08T04:36:20.626Z,1.14
2019-01-08T04:37:28.826Z,1.16
2019-01-08T04:38:36.828Z,1.06
2019-01-08T04:39:44.942Z,0.98
2019-01-08T04:40:52.930Z,1.11
2019-01-08T04:42:01.053Z,1.08
2019-01-08T04:43:08.986Z,1.12
2019-01-08T04:44:17.187Z,1.06
2019-01-08T04:45:25.206Z,1.04
2019-01-08T04:46:33.216Z,1.11
2019-01-08T04:47:41.343Z,1.06
2019-01-08T04:48:49.315Z,1.05
2019-01-08T04:49:57.317Z,1.00
2019-01-08T04:51:05.520Z,1.12
2019-01-08T04:52:13.433Z,1.15
2019-01-08T04:53:21.604Z,1.05
2019-01-08T04:54:29.534Z,1.04
2019-01-08T04:55:37.712Z,1.08
2019-01-08T04:56:45.708Z,1.09
2019-01-08T04:57:53.851Z,1.06
2019-01-08T04:59:01.865Z,1.16
2019-01-08T05:00:09.948Z,1.12
2019-01-08T05:01:17.883Z,1.11
2019-01-08T05:02:25.945Z,1.12
2019-01-08T05:03:33.981Z,1.11
2019-01-08T05:04:42.078Z,1.12
2019-01-08T05:05:50.100Z,1.11
2019-01-08T05:06:58.187Z,1.12
2019-01-08T05:08:06.219Z,1.14
2019-01-08T05:09:14.275Z,1.11
2019-01-08T05:10:22.320Z,1.09
2019-01-08T05:11:30.388Z,1.15
2019-01-08T05:12:38.491Z,1.15
2019-01-08T05:13:46.484Z,1.15
2019-01-08T05:14:54.552Z,1.18
2019-01-08T05:16:02.608Z,1.12
2019-01-08T05:17:10.651Z,1.20
2019-01-08T05:18:18.707Z,1.14
2019-01-08T05:19:26.755Z,1.16
2019-01-08T05:20:34.867Z,1.14
2019-01-08T05:21:42.903Z,1.22
2019-01-08T05:22:50.934Z,1.11
2019-01-08T05:23:58.994Z,1.22
2019-01-08T05:25:07.043Z,1.12
2019-01-08T05:26:15.114Z,1.18
2019-01-08T05:27:23.172Z,1.16
2019-01-08T05:28:31.249Z,1.24
2019-01-08T05:29:39.255Z,1.18
2019-01-08T05:30:47.462Z,1.24
2019-01-08T05:31:55.385Z,1.32
2019-01-08T05:33:03.486Z,1.29
2019-01-08T05:34:11.490Z,1.16
2019-01-08T05:35:19.700Z,1.23
2019-01-08T05:36:27.602Z,1.32
2019-01-08T05:37:35.668Z,1.30
2019-01-08T05:38:43.708Z,1.26
2019-01-08T05:39:52.231Z,1.23
2019-01-08T05:40:59.824Z,1.32
2019-01-08T05:42:07.892Z,1.18
2019-01-08T05:43:15.943Z,1.20
2019-01-08T05:44:24.004Z,1.20
2019-01-08T05:45:32.055Z,1.24
2019-01-08T05:46:40.098Z,1.18
2019-01-08T05:47:48.171Z,1.27
2019-01-08T05:48:56.262Z,1.24
2019-01-08T05:50:04.252Z,1.23
2019-01-08T05:51:12.345Z,1.20
2019-01-08T05:52:20.379Z,1.24
2019-01-08T05:53:28.448Z,1.24
2019-01-08T05:54:36.499Z,1.27
2019-01-08T05:55:44.543Z,1.30
2019-01-08T05:56:52.627Z,1.24
2019-01-08T05:58:00.657Z,1.32
2019-01-08T05:59:08.736Z,1.30
2019-01-08T06:00:16.834Z,1.24
2019-01-08T06:01:24.828Z,1.20
2019-01-08T06:02:32.879Z,1.18
2019-01-08T06:03:41.045Z,1.23
2019-01-08T06:04:49.023Z,1.23
2019-01-08T06:05:57.278Z,1.26
2019-01-08T06:07:05.623Z,1.30
2019-01-08T06:08:13.493Z,1.22
2019-01-08T06:09:21.310Z,1.32
2019-01-08T06:10:29.285Z,1.27
2019-01-08T06:11:37.706Z,1.36
2019-01-08T06:12:45.567Z,1.37
2019-01-08T06:13:53.562Z,1.36
2019-01-08T06:15:01.544Z,1.41
2019-01-08T06:16:09.637Z,1.33
2019-01-08T06:17:17.813Z,1.37
2019-01-08T06:18:25.663Z,1.37
2019-01-08T06:19:35.845Z,1.41
2019-01-08T06:20:44.227Z,1.42
2019-01-08T06:21:49.987Z,1.47
2019-01-08T06:22:57.879Z,1.37
2019-01-08T06:24:05.923Z,1.41
2019-01-08T06:25:14.178Z,1.37
2019-01-08T06:26:22.123Z,1.42
2019-01-08T06:27:30.113Z,1.42
2019-01-08T06:28:38.299Z,1.45
2019-01-08T06:29:46.368Z,1.41
2019-01-08T06:30:54.300Z,1.44
2019-01-08T06:32:02.558Z,1.41
2019-01-08T06:33:10.525Z,1.48
2019-01-08T06:34:18.577Z,1.47
2019-01-08T06:35:26.565Z,1.59
2019-01-08T06:36:34.711Z,1.44
2019-01-08T06:37:42.599Z,1.54
2019-01-08T06:38:50.783Z,1.48
2019-01-08T06:39:58.849Z,1.54
2019-01-08T06:41:06.895Z,1.62
2019-01-08T06:42:14.894Z,1.51
2019-01-08T06:43:23.043Z,1.55
2019-01-08T06:44:30.995Z,1.55
2019-01-08T06:45:39.029Z,1.55
2019-01-08T06:46:47.066Z,1.55
2019-01-08T06:47:55.133Z,1.66
2019-01-08T06:49:03.320Z,1.63
2019-01-08T06:50:11.218Z,1.63
2019-01-08T06:51:19.423Z,1.69
2019-01-08T06:52:27.525Z,1.70
2019-01-08T06:53:35.419Z,1.70
2019-01-08T06:54:43.568Z,1.68
2019-01-08T06:55:51.663Z,1.66
2019-01-08T06:56:59.580Z,1.70
2019-01-08T06:58:07.706Z,1.76
2019-01-08T06:59:15.798Z,1.63
2019-01-08T07:00:23.779Z,1.70
2019-01-08T07:01:31.921Z,1.86
2019-01-08T07:02:39.997Z,1.70
2019-01-08T07:03:47.958Z,1.80
2019-01-08T07:04:56.071Z,1.77
2019-01-08T07:06:04.016Z,1.77
2019-01-08T07:07:12.078Z,1.77
2019-01-08T07:08:20.185Z,1.83
2019-01-08T07:09:28.203Z,1.83
2019-01-08T07:10:36.368Z,1.77
2019-01-08T07:11:44.434Z,1.79
2019-01-08T07:12:52.472Z,1.80
2019-01-08T07:14:00.441Z,1.80
2019-01-08T07:15:08.526Z,1.81
2019-01-08T07:16:16.567Z,1.79
2019-01-08T07:17:24.714Z,1.81
2019-01-08T07:18:32.621Z,1.77
2019-01-08T07:19:40.688Z,1.77
2019-01-08T07:20:48.849Z,1.84
2019-01-08T07:21:56.837Z,1.84
2019-01-08T07:23:04.988Z,1.86
2019-01-08T07:24:13.013Z,1.90
2019-01-08T07:25:20.958Z,1.83
2019-01-08T07:26:29.151Z,1.88
2019-01-08T07:27:37.078Z,1.91
2019-01-08T07:28:45.276Z,1.93
2019-01-08T07:29:53.330Z,1.86
2019-01-08T07:31:01.351Z,1.87
2019-01-08T07:32:09.355Z,1.88
2019-01-08T07:33:17.437Z,1.90
2019-01-08T07:34:25.553Z,1.81
2019-01-08T07:35:33.592Z,1.91
2019-01-08T07:36:41.679Z,1.99
2019-01-08T07:37:49.718Z,2.03
2019-01-08T07:38:57.732Z,1.90
2019-01-08T07:40:05.818Z,1.98
2019-01-08T07:41:13.893Z,2.05
2019-01-08T07:42:21.877Z,1.99
2019-01-08T07:43:30.015Z,2.07
2019-01-08T07:44:37.939Z,2.00
2019-01-08T07:45:45.989Z,2.00
2019-01-08T07:46:54.151Z,2.12
2019-01-08T07:48:02.232Z,2.00
2019-01-08T07:49:10.304Z,2.05
2019-01-08T07:50:18.222Z,2.07
2019-01-08T07:51:26.416Z,2.06
2019-01-08T07:52:34.330Z,2.06
2019-01-08T07:53:42.515Z,2.07
2019-01-08T07:54:50.530Z,2.03
2019-01-08T07:55:58.550Z,2.06
2019-01-08T07:57:06.572Z,2.06
2019-01-08T07:58:14.612Z,2.06
2019-01-08T07:59:22.797Z,2.10
2019-01-08T08:00:30.842Z,2.18
2019-01-08T08:01:38.887Z,2.16
2019-01-08T08:02:46.821Z,2.12
2019-01-08T08:03:54.987Z,2.25
2019-01-08T08:05:02.949Z,2.25
2019-01-08T08:06:11.011Z,2.25
2019-01-08T08:07:19.067Z,2.25
2019-01-08T08:08:27.183Z,2.24
2019-01-08T08:09:35.284Z,2.30
2019-01-08T08:10:43.219Z,2.30
2019-01-08T08:11:51.387Z,2.38
2019-01-08T08:12:59.346Z,2.30
2019-01-08T08:14:07.526Z,2.35
2019-01-08T08:15:15.457Z,2.38
2019-01-08T08:16:23.558Z,2.43
2019-01-08T08:17:31.722Z,2.45
2019-01-08T08:18:39.738Z,2.42
2019-01-08T08:19:47.733Z,2.52
2019-01-08T08:20:55.798Z,2.41
2019-01-08T08:22:03.917Z,2.45
2019-01-08T08:23:11.971Z,2.42
2019-01-08T08:24:20.014Z,2.38
2019-01-08T08:25:28.004Z,2.48
2019-01-08T08:26:36.017Z,2.48
2019-01-08T08:27:44.197Z,2.49
2019-01-08T08:28:52.236Z,2.52
2019-01-08T08:30:00.271Z,2.57
2019-01-08T08:31:08.251Z,2.57
2019-01-08T08:32:16.438Z,2.56
2019-01-08T08:33:24.522Z,2.53
2019-01-08T08:34:32.531Z,2.59
2019-01-08T08:35:40.468Z,2.59
2019-01-08T08:36:48.656Z,2.60
2019-01-08T08:37:56.719Z,2.74
2019-01-08T08:39:04.656Z,2.74
2019-01-08T08:40:12.832Z,2.71
2019-01-08T08:41:20.899Z,2.74
2019-01-08T08:42:29.262Z,2.74
2019-01-08T08:43:37.000Z,2.67
2019-01-08T08:44:45.045Z,2.79
2019-01-08T08:45:53.097Z,2.78
2019-01-08T08:47:01.115Z,2.71
2019-01-08T08:48:09.160Z,2.69
2019-01-08T08:49:17.282Z,2.79
2019-01-08T08:50:25.315Z,2.67
2019-01-08T08:51:33.351Z,2.75
2019-01-08T08:52:41.340Z,2.75
2019-01-08T08:53:52.501Z,2.81
2019-01-08T08:54:57.596Z,2.77
2019-01-08T08:56:05.622Z,2.84
2019-01-08T08:57:13.682Z,2.87
2019-01-08T08:58:21.700Z,2.79
2019-01-08T08:59:29.679Z,2.79
2019-01-08T09:00:37.865Z,2.92
2019-01-08T09:01:45.905Z,2.84
2019-01-08T09:02:53.851Z,2.96
2019-01-08T09:04:01.911Z,2.96
2019-01-08T09:05:09.974Z,2.89
2019-01-08T09:06:18.064Z,2.92
2019-01-08T09:07:26.203Z,2.87
2019-01-08T09:08:34.233Z,2.96
2019-01-08T09:09:42.300Z,2.92
2019-01-08T09:10:50.374Z,2.90
2019-01-08T09:11:58.430Z,2.92
2019-01-08T09:13:06.475Z,2.95
2019-01-08T09:14:14.427Z,2.95
2019-01-08T09:15:22.551Z,2.90
2019-01-08T09:16:30.659Z,2.92
2019-01-08T09:17:38.751Z,2.93
2019-01-08T09:18:46.775Z,2.95
2019-01-08T09:19:54.696Z,3.00
2019-01-08T09:21:02.891Z,3.03
2019-01-08T09:22:10.930Z,3.05
2019-01-08T09:23:18.991Z,2.95
2019-01-08T09:24:27.110Z,3.02
2019-01-08T09:25:35.161Z,2.92
2019-01-08T09:26:43.180Z,3.08
2019-01-08T09:27:51.186Z,3.03
2019-01-08T09:28:59.332Z,3.14
2019-01-08T09:30:07.356Z,3.15
2019-01-08T09:31:15.827Z,3.11
2019-01-08T09:32:23.409Z,3.24
2019-01-08T09:33:31.549Z,3.14
2019-01-08T09:34:39.575Z,3.13
2019-01-08T09:35:47.519Z,3.13
2019-01-08T09:36:55.576Z,3.13
2019-01-08T09:38:03.634Z,3.11
2019-01-08T09:39:11.786Z,3.10
2019-01-08T09:40:19.808Z,2.96
2019-01-08T09:41:27.797Z,2.96
2019-01-08T09:42:35.969Z,2.93
2019-01-08T09:43:43.904Z,2.92
2019-01-08T09:44:52.138Z,2.99
2019-01-08T09:46:00.145Z,3.00
2019-01-08T09:47:08.206Z,3.03
2019-01-08T09:48:16.148Z,3.08
2019-01-08T09:49:25.985Z,3.03
2019-01-08T09:50:32.384Z,3.08
2019-01-08T09:51:40.378Z,3.14
2019-01-08T09:52:48.523Z,3.10
2019-01-08T09:53:56.577Z,3.14
2019-01-08T09:55:04.629Z,3.24
2019-01-08T09:56:12.671Z,3.20
2019-01-08T09:57:20.738Z,3.17
2019-01-08T09:58:28.680Z,3.15
2019-01-08T09:59:36.844Z,3.18
2019-01-08T10:00:44.825Z,3.13
2019-01-08T10:01:52.960Z,3.17
2019-01-08T10:03:00.880Z,3.24
2019-01-08T10:04:09.075Z,3.13
2019-01-08T10:05:17.044Z,3.18
2019-01-08T10:06:25.167Z,3.24
2019-01-08T10:07:33.289Z,3.31
2019-01-08T10:08:41.165Z,3.31
2019-01-08T10:09:49.264Z,3.31
2019-01-08T10:10:57.373Z,3.24
2019-01-08T10:12:05.489Z,3.29
2019-01-08T10:13:13.479Z,3.28
2019-01-08T10:14:21.453Z,3.42
2019-01-08T10:15:29.536Z,3.42
2019-01-08T10:16:37.715Z,3.39
2019-01-08T10:17:45.648Z,3.35
2019-01-08T10:18:53.807Z,3.42
2019-01-08T10:20:01.909Z,3.50
2019-01-08T10:21:09.966Z,3.62
2019-01-08T10:22:17.919Z,3.65
2019-01-08T10:23:25.979Z,3.68
2019-01-08T10:24:34.115Z,3.66
2019-01-08T10:25:42.178Z,3.65
2019-01-08T10:26:50.125Z,3.73
2019-01-08T10:27:58.250Z,3.75
2019-01-08T10:29:06.226Z,3.69
2019-01-08T10:30:14.409Z,3.65
2019-01-08T10:31:22.407Z,3.54
2019-01-08T10:32:30.557Z,3.61
2019-01-08T10:33:38.652Z,3.66
2019-01-08T10:34:46.659Z,3.52
2019-01-08T10:35:54.579Z,3.60
2019-01-08T10:37:02.751Z,3.61
2019-01-08T10:38:10.791Z,3.66
2019-01-08T10:39:18.841Z,3.61
2019-01-08T10:40:26.807Z,3.73
2019-01-08T10:41:35.008Z,3.72
2019-01-08T10:42:42.931Z,3.72
2019-01-08T10:43:51.218Z,3.75
2019-01-08T10:44:59.167Z,3.76
2019-01-08T10:46:07.230Z,3.80
2019-01-08T10:47:15.278Z,3.88
2019-01-08T10:48:23.330Z,3.73
2019-01-08T10:49:31.429Z,3.87
2019-01-08T10:50:39.457Z,3.88
2019-01-08T10:51:47.515Z,3.94
2019-01-08T10:52:55.504Z,3.87
2019-01-08T10:54:03.623Z,3.98
2019-01-08T10:55:11.740Z,3.91
2019-01-08T10:56:19.716Z,4.05
2019-01-08T10:57:27.863Z,4.04
2019-01-08T10:58:35.892Z,4.18
2019-01-08T10:59:43.911Z,4.09
2019-01-08T11:00:52.010Z,4.12
2019-01-08T11:01:59.920Z,4.12
2019-01-08T11:03:07.993Z,4.12
2019-01-08T11:04:16.174Z,4.11
2019-01-08T11:05:25.668Z,4.11
2019-01-08T11:06:32.271Z,4.20
2019-01-08T11:07:40.427Z,4.08
2019-01-08T11:08:48.401Z,4.16
2019-01-08T11:09:56.481Z,4.09
2019-01-08T11:11:04.503Z,4.11
2019-01-08T11:12:12.525Z,4.15
2019-01-08T11:13:20.628Z,4.20
2019-01-08T11:14:28.597Z,4.20
2019-01-08T11:15:36.767Z,4.11
2019-01-08T11:16:44.704Z,4.23
2019-01-08T11:17:52.879Z,4.18
2019-01-08T11:19:00.922Z,4.24
2019-01-08T11:20:09.007Z,4.29
2019-01-08T11:21:17.015Z,4.30
2019-01-08T11:22:25.318Z,4.32
2019-01-08T11:23:33.127Z,4.23
2019-01-08T11:24:41.169Z,4.29
2019-01-08T11:25:49.266Z,4.20
2019-01-08T11:26:57.365Z,4.27
2019-01-08T11:28:05.340Z,4.22
2019-01-08T11:29:13.469Z,4.27
2019-01-08T11:30:21.458Z,4.24
2019-01-08T11:31:29.608Z,4.22
2019-01-08T11:32:37.523Z,4.24
2019-01-08T11:33:45.683Z,4.18
2019-01-08T11:34:53.631Z,4.18
2019-01-08T11:36:01.795Z,4.26
2019-01-08T11:37:09.905Z,4.24
2019-01-08T11:38:17.853Z,4.16
2019-01-08T11:39:25.896Z,4.26
2019-01-08T11:40:33.968Z,4.24
2019-01-08T11:41:42.154Z,4.23
2019-01-08T11:42:50.147Z,4.26
2019-01-08T11:43:58.231Z,4.18
2019-01-08T11:45:06.171Z,4.20
2019-01-08T11:46:14.415Z,4.23
2019-01-08T11:47:22.428Z,4.42
2019-01-08T11:48:30.342Z,4.45
2019-01-08T11:49:38.537Z,4.47
2019-01-08T11:50:46.526Z,4.58
2019-01-08T11:51:54.599Z,4.70
2019-01-08T11:53:02.694Z,4.72
2019-01-08T11:54:10.772Z,4.85
2019-01-08T11:55:18.763Z,5.03
2019-01-08T11:56:26.891Z,5.10
2019-01-08T11:57:34.931Z,5.22
2019-01-08T11:58:43.012Z,5.27
2019-01-08T11:59:51.054Z,5.46
2019-01-08T12:00:59.139Z,5.43
2019-01-08T12:02:07.171Z,5.48
2019-01-08T12:03:15.257Z,5.56
2019-01-08T12:04:23.300Z,5.49
2019-01-08T12:05:31.351Z,5.61
2019-01-08T12:06:39.433Z,5.64
2019-01-08T12:07:47.362Z,5.64
2019-01-08T12:08:55.539Z,5.63
2019-01-08T12:10:03.539Z,5.60
2019-01-08T12:11:11.669Z,5.48
2019-01-08T12:12:19.581Z,5.48
2019-01-08T12:13:27.778Z,5.53
2019-01-08T12:14:35.835Z,5.61
2019-01-08T12:15:43.931Z,5.53
2019-01-08T12:16:51.962Z,5.49
2019-01-08T12:17:59.896Z,5.45
2019-01-08T12:19:08.023Z,5.39
2019-01-08T12:20:16.159Z,5.33
2019-01-08T12:21:24.216Z,5.42
2019-01-08T12:22:40.592Z,5.35
2019-01-08T12:23:40.341Z,5.33
2019-01-08T12:24:48.258Z,5.36
2019-01-08T12:25:56.458Z,5.39
2019-01-08T12:27:04.441Z,5.40
2019-01-08T12:28:12.564Z,5.30
2019-01-08T12:29:20.525Z,5.48
2019-01-08T12:30:28.741Z,5.39
2019-01-08T12:31:36.775Z,5.28
2019-01-08T12:32:44.779Z,5.35
2019-01-08T12:33:52.915Z,5.33
2019-01-08T12:35:00.935Z,5.38
2019-01-08T12:36:08.878Z,5.27
2019-01-08T12:37:17.042Z,5.25
2019-01-08T12:38:25.079Z,5.20
2019-01-08T12:39:33.111Z,5.09
2019-01-08T12:40:41.226Z,5.07
2019-01-08T12:41:49.331Z,5.04
2019-01-08T12:42:57.326Z,5.03
2019-01-08T12:44:05.288Z,5.03
2019-01-08T12:45:13.351Z,5.03
2019-01-08T12:46:21.537Z,4.96
2019-01-08T12:47:29.475Z,4.96
2019-01-08T12:48:37.577Z,5.04
2019-01-08T12:49:45.718Z,5.06
2019-01-08T12:50:53.659Z,5.09
2019-01-08T12:52:01.827Z,5.18
2019-01-08T12:53:09.749Z,5.18
2019-01-08T12:54:17.837Z,5.12
2019-01-08T12:55:25.892Z,5.10
2019-01-08T12:56:34.093Z,5.12
2019-01-08T12:57:42.006Z,5.12
2019-01-08T12:58:50.191Z,5.17
2019-01-08T12:59:58.187Z,5.12
2019-01-08T13:01:06.185Z,5.12
2019-01-08T13:02:14.681Z,5.12
2019-01-08T13:03:22.441Z,5.04
2019-01-08T13:04:30.353Z,5.04
2019-01-08T13:05:38.445Z,4.99
2019-01-08T13:06:46.501Z,5.00
2019-01-08T13:07:54.553Z,5.00
2019-01-08T13:09:02.727Z,5.03
2019-01-08T13:10:10.798Z,5.06
2019-01-08T13:11:18.832Z,5.10
2019-01-08T13:12:26.903Z,5.12
2019-01-08T13:13:34.822Z,5.17
2019-01-08T13:14:43.044Z,5.22
2019-01-08T13:15:51.056Z,5.20
2019-01-08T13:16:59.071Z,5.22
2019-01-08T13:18:07.214Z,5.28
2019-01-08T13:19:15.251Z,5.20
2019-01-08T13:20:23.340Z,5.17
2019-01-08T13:21:31.331Z,5.20
2019-01-08T13:22:39.435Z,5.18
2019-01-08T13:23:47.370Z,5.22
2019-01-08T13:24:55.562Z,5.20
2019-01-08T13:26:03.645Z,5.21
2019-01-08T13:27:11.629Z,5.35
2019-01-08T13:28:19.731Z,5.28
2019-01-08T13:29:27.724Z,5.30
2019-01-08T13:30:35.879Z,5.15
2019-01-08T13:31:43.887Z,5.10
2019-01-08T13:32:51.987Z,5.13
2019-01-08T13:34:00.030Z,5.04
2019-01-08T13:35:08.154Z,5.10
2019-01-08T13:36:16.170Z,5.06
2019-01-08T13:37:24.196Z,5.12
2019-01-08T13:38:32.254Z,5.17
2019-01-08T13:39:40.230Z,5.20
2019-01-08T13:40:48.336Z,5.22
2019-01-08T13:41:56.397Z,5.21
2019-01-08T13:43:04.503Z,5.22
2019-01-08T13:44:12.599Z,5.20
2019-01-08T13:45:20.632Z,5.17
2019-01-08T13:46:28.580Z,5.10
2019-01-08T13:47:36.848Z,5.12
2019-01-08T13:48:44.810Z,5.09
2019-01-08T13:49:52.828Z,5.03
2019-01-08T13:51:00.931Z,4.94
2019-01-08T13:52:08.906Z,4.91
2019-01-08T13:53:16.929Z,4.96
2019-01-08T13:54:25.083Z,4.92
2019-01-08T13:55:33.105Z,4.80
2019-01-08T13:56:41.239Z,4.85
2019-01-08T13:57:49.160Z,4.85
2019-01-08T13:58:57.351Z,4.86
2019-01-08T14:00:05.410Z,4.72
2019-01-08T14:01:13.485Z,4.67
2019-01-08T14:02:21.568Z,4.60
2019-01-08T14:03:29.534Z,4.58
2019-01-08T14:04:37.643Z,4.45
2019-01-08T14:05:45.637Z,4.48
2019-01-08T14:06:53.782Z,4.44
2019-01-08T14:08:01.874Z,4.37
2019-01-08T14:09:09.871Z,4.32
2019-01-08T14:10:17.864Z,4.29
2019-01-08T14:11:26.002Z,4.24
2019-01-08T14:12:34.073Z,4.23
2019-01-08T14:13:42.124Z,4.22
2019-01-08T14:14:50.170Z,4.26
2019-01-08T14:15:58.223Z,4.32
2019-01-08T14:17:06.285Z,4.27
2019-01-08T14:18:14.248Z,4.40
2019-01-08T14:19:22.371Z,4.48
2019-01-08T14:20:30.481Z,4.50
2019-01-08T14:21:38.541Z,4.47
2019-01-08T14:22:46.490Z,4.62
2019-01-08T14:23:54.672Z,4.51
2019-01-08T14:25:02.685Z,4.62
2019-01-08T14:26:10.811Z,4.58
2019-01-08T14:27:18.796Z,4.65
2019-01-08T14:28:26.891Z,4.59
2019-01-08T14:29:34.814Z,4.66
2019-01-08T14:30:43.010Z,4.55
2019-01-08T14:31:51.106Z,4.62
2019-01-08T14:32:58.998Z,4.75
2019-01-08T14:34:07.178Z,4.72
2019-01-08T14:35:15.126Z,4.72
2019-01-08T14:36:23.312Z,4.62
2019-01-08T14:37:31.249Z,4.59
2019-01-08T14:38:39.291Z,4.59
2019-01-08T14:39:47.463Z,4.73
2019-01-08T14:40:55.409Z,4.67
2019-01-08T14:42:03.575Z,4.78
2019-01-08T14:43:14.055Z,4.70
2019-01-08T14:44:19.713Z,4.72
2019-01-08T14:45:27.740Z,4.80
2019-01-08T14:46:35.703Z,4.75
2019-01-08T14:47:43.760Z,4.77
2019-01-08T14:48:51.946Z,4.85
2019-01-08T14:49:59.897Z,4.84
2019-01-08T14:51:07.935Z,4.84
2019-01-08T14:52:16.119Z,4.89
2019-01-08T14:53:24.181Z,4.84
2019-01-08T14:54:32.133Z,4.84
2019-01-08T14:55:40.193Z,4.77
2019-01-08T14:56:48.413Z,4.86
2019-01-08T14:57:56.430Z,4.82
2019-01-08T14:59:04.349Z,4.82
2019-01-08T15:00:12.427Z,4.82
2019-01-08T15:01:20.615Z,4.73
2019-01-08T15:02:28.679Z,4.66
2019-01-08T15:03:36.599Z,4.65
2019-01-08T15:04:44.763Z,4.62
2019-01-08T15:05:52.702Z,4.48